Terminal Aerodrome Forecast
Issued by NWS Billings, MT

Home | Current Version | Previous Version | Text Only | Print | Product List | Glossary On
Versions: 1 2 3 4 5 6 7 8 9 10 11 12 13 14
000
FTUS45 KBYZ 221335 AAA
TAFBIL
TAF AMD
KBIL 221335Z 2214/2312 06010KT 6SM -RA SCT003 OVC010
      TEMPO 2214/2218 3SM -RA BR BKN003 OVC010
     FM221900 08010KT P6SM -RA FEW005 SCT012 BKN024=

USA.gov is the U.S. government's official web portal to all federal, state and local government web resources and services.